Time;durP1;ratioP1;P1;durP2;ratioP2;P2;SDS_P1;SDS_P2;PMS_P1;PMS_P2;Temp;Humidity;BMP_temperature;BMP_pressure;BME280_temperature;BME280_humidity;BME280_pressure;Samples;Min_cycle;Max_cycle;Signal;HPM_P1;HPM_P2
2022/03/04 00:01:11;;;;;;;7.45;3.75;;;1.90;99.90;;;;;;5019592;28;20032;-75
2022/03/04 00:03:38;;;;;;;8.05;3.90;;;1.90;99.90;;;;;;5036045;28;20486;-75
2022/03/04 00:06:03;;;;;;;7.80;3.63;;;1.90;99.90;;;;;;5036932;28;20029;-75
2022/03/04 00:08:29;;;;;;;6.45;2.78;;;1.90;99.90;;;;;;5020299;28;20044;-76
2022/03/04 00:10:55;;;;;;;8.45;3.88;;;1.80;99.90;;;;;;5002675;28;20033;-75
2022/03/04 00:13:21;;;;;;;8.48;3.92;;;1.80;99.90;;;;;;5021136;28;20033;-75
2022/03/04 00:15:46;;;;;;;7.28;3.60;;;1.70;99.90;;;;;;5019437;28;20021;-75
2022/03/04 00:18:12;;;;;;;9.35;3.60;;;1.60;99.90;;;;;;5026780;28;20533;-75
2022/03/04 00:20:37;;;;;;;7.13;3.60;;;1.60;99.90;;;;;;5021766;28;20064;-75
2022/03/04 00:23:03;;;;;;;7.90;3.40;;;1.60;99.90;;;;;;5036645;28;20116;-75
2022/03/04 00:25:29;;;;;;;7.65;3.75;;;1.50;99.90;;;;;;5020140;28;20029;-76
2022/03/04 00:27:54;;;;;;;6.00;3.47;;;1.40;99.90;;;;;;5020449;28;20038;-76
2022/03/04 00:30:21;;;;;;;8.90;4.07;;;1.40;99.90;;;;;;5019730;28;20092;-75
2022/03/04 00:32:47;;;;;;;7.40;3.78;;;1.20;99.90;;;;;;5019740;28;20482;-75
2022/03/04 00:35:13;;;;;;;9.75;4.28;;;1.20;99.90;;;;;;5001024;28;20033;-76
2022/03/04 00:37:39;;;;;;;8.88;4.00;;;1.20;99.90;;;;;;5021422;28;20036;-76
2022/03/04 00:40:05;;;;;;;7.75;3.95;;;1.10;99.90;;;;;;5018917;28;20076;-74
2022/03/04 00:42:31;;;;;;;7.88;3.53;;;1.00;99.90;;;;;;5019630;28;20664;-76
2022/03/04 00:44:57;;;;;;;8.60;3.90;;;1.00;99.90;;;;;;5026186;28;20108;-74
2022/03/04 00:47:23;;;;;;;7.90;4.00;;;0.90;99.90;;;;;;5001991;28;20199;-75
2022/03/04 00:49:48;;;;;;;7.53;4.10;;;0.80;99.90;;;;;;5035800;28;20037;-75
2022/03/04 00:52:14;;;;;;;6.32;3.20;;;0.80;99.90;;;;;;5025577;28;20040;-74
2022/03/04 00:54:39;;;;;;;7.55;3.97;;;0.70;99.90;;;;;;5019858;28;20064;-75
2022/03/04 00:57:05;;;;;;;7.95;3.60;;;0.70;99.90;;;;;;5019355;28;20044;-75
2022/03/04 00:59:31;;;;;;;6.40;2.92;;;0.80;99.90;;;;;;5026408;28;20057;-75
2022/03/04 01:01:56;;;;;;;6.82;3.85;;;0.80;99.90;;;;;;5002565;28;20501;-75
2022/03/04 01:04:22;;;;;;;8.30;3.65;;;0.90;99.90;;;;;;5019158;28;20041;-75
2022/03/04 01:06:48;;;;;;;9.10;3.80;;;0.80;99.90;;;;;;5018967;28;20176;-75
2022/03/04 01:09:13;;;;;;;8.93;3.63;;;0.90;99.90;;;;;;5019835;28;20034;-75
2022/03/04 01:11:39;;;;;;;7.97;3.88;;;0.90;99.90;;;;;;5021368;28;20482;-76
2022/03/04 01:14:06;;;;;;;7.80;3.88;;;0.80;99.90;;;;;;5036009;28;20383;-76
2022/03/04 01:16:31;;;;;;;7.30;3.50;;;0.70;99.90;;;;;;5018324;28;20033;-75
2022/03/04 01:18:57;;;;;;;7.97;4.20;;;0.70;99.90;;;;;;5019106;28;20402;-75
2022/03/04 01:21:23;;;;;;;6.60;3.00;;;0.80;99.90;;;;;;5025565;28;20025;-75
2022/03/04 01:23:49;;;;;;;8.18;3.60;;;0.70;99.90;;;;;;5034523;28;20535;-75
2022/03/04 01:26:14;;;;;;;6.35;3.30;;;0.80;99.90;;;;;;5018615;28;20021;-75
2022/03/04 01:28:40;;;;;;;7.47;3.55;;;0.70;99.90;;;;;;5034580;28;20169;-76
2022/03/04 01:31:06;;;;;;;6.15;3.17;;;0.70;99.90;;;;;;5020131;28;20038;-75
2022/03/04 01:33:31;;;;;;;8.25;3.33;;;0.70;99.90;;;;;;5018747;28;20041;-76
2022/03/04 01:35:57;;;;;;;7.80;2.88;;;0.70;99.90;;;;;;5018810;28;20032;-76
2022/03/04 01:38:22;;;;;;;6.38;2.80;;;0.60;99.90;;;;;;5018595;28;20041;-76
2022/03/04 01:40:48;;;;;;;7.53;3.38;;;0.60;99.90;;;;;;4994741;28;20029;-75
2022/03/04 01:43:13;;;;;;;7.10;3.05;;;0.60;99.90;;;;;;5017653;28;20045;-76
2022/03/04 01:45:39;;;;;;;7.55;3.45;;;0.50;99.90;;;;;;5025497;28;20029;-75
2022/03/04 01:48:05;;;;;;;7.20;3.25;;;0.50;99.90;;;;;;5018728;28;20056;-75
2022/03/04 01:50:31;;;;;;;8.60;3.75;;;0.50;99.90;;;;;;5025963;28;20030;-77
2022/03/04 01:52:56;;;;;;;8.13;3.05;;;0.40;99.90;;;;;;5034869;28;20534;-76
2022/03/04 01:55:22;;;;;;;7.22;3.28;;;0.30;99.90;;;;;;5018139;28;20040;-76
2022/03/04 01:57:49;;;;;;;7.70;3.30;;;0.20;99.90;;;;;;5020669;28;20025;-76
2022/03/04 02:00:15;;;;;;;7.82;3.40;;;0.20;99.90;;;;;;5001619;28;21016;-76
2022/03/04 02:02:43;;;;;;;8.63;3.45;;;0.20;99.90;;;;;;5013066;28;20140;-76
2022/03/04 02:05:15;;;;;;;6.63;3.10;;;0.20;99.90;;;;;;5020592;28;20381;-75
2022/03/04 02:07:41;;;;;;;8.25;3.15;;;0.20;99.90;;;;;;5017247;28;20049;-75
2022/03/04 02:10:09;;;;;;;8.48;3.28;;;0.20;99.90;;;;;;5024733;28;20235;-75
2022/03/04 02:12:36;;;;;;;7.35;2.55;;;0.20;99.90;;;;;;5004012;28;20041;-76
2022/03/04 02:15:03;;;;;;;7.00;3.58;;;0.20;99.90;;;;;;5016965;28;20052;-76
2022/03/04 02:17:29;;;;;;;7.07;3.22;;;0.20;99.90;;;;;;5015213;28;20029;-76
2022/03/04 02:19:55;;;;;;;7.78;3.28;;;0.10;99.90;;;;;;5035237;28;20037;-76
2022/03/04 02:22:21;;;;;;;7.32;2.97;;;0.20;99.90;;;;;;5033655;28;20036;-76
2022/03/04 02:24:46;;;;;;;9.48;3.40;;;0.30;99.90;;;;;;5017723;28;20045;-76
2022/03/04 02:27:12;;;;;;;8.52;3.20;;;0.30;99.90;;;;;;5018099;28;20115;-75
2022/03/04 02:29:38;;;;;;;8.50;3.08;;;0.30;99.90;;;;;;5010564;28;20095;-76
2022/03/04 02:32:04;;;;;;;8.77;3.95;;;0.30;99.90;;;;;;5018206;28;20113;-77
2022/03/04 02:34:30;;;;;;;7.68;3.28;;;0.20;99.90;;;;;;5024914;28;20402;-76
2022/03/04 02:36:56;;;;;;;7.72;3.47;;;0.20;99.90;;;;;;5011916;28;20034;-76
2022/03/04 02:39:22;;;;;;;7.78;3.65;;;0.20;99.90;;;;;;5018688;28;20037;-76
2022/03/04 02:41:48;;;;;;;8.30;4.00;;;0.20;99.90;;;;;;5018142;28;20065;-77
2022/03/04 02:44:14;;;;;;;7.75;3.25;;;0.20;99.90;;;;;;5016303;28;20068;-76
2022/03/04 02:46:40;;;;;;;9.10;3.83;;;0.20;99.90;;;;;;5019334;28;20440;-76
2022/03/04 02:49:07;;;;;;;8.50;3.00;;;0.10;99.90;;;;;;5019021;28;20029;-75
2022/03/04 02:51:34;;;;;;;7.82;2.85;;;0.20;99.90;;;;;;4999728;28;20397;-76
2022/03/04 02:53:59;;;;;;;9.60;3.63;;;0.20;99.90;;;;;;5017982;28;20041;-76
2022/03/04 02:56:25;;;;;;;6.93;2.88;;;0.20;99.90;;;;;;5017103;28;20075;-75
2022/03/04 02:58:51;;;;;;;6.60;2.65;;;0.20;99.90;;;;;;5024606;28;20474;-76
2022/03/04 03:01:17;;;;;;;5.25;2.15;;;0.20;99.90;;;;;;5017737;28;20108;-76
2022/03/04 03:03:43;;;;;;;7.68;3.42;;;0.20;99.90;;;;;;5017550;28;20057;-76
2022/03/04 03:06:09;;;;;;;8.93;3.85;;;0.20;99.90;;;;;;5001794;28;20037;-76
2022/03/04 03:08:34;;;;;;;8.27;3.95;;;0.20;99.90;;;;;;5023773;28;20029;-76
2022/03/04 03:11:00;;;;;;;8.63;3.63;;;0.10;99.90;;;;;;5019419;28;20090;-76
2022/03/04 03:13:26;;;;;;;9.10;3.67;;;-0.10;99.90;;;;;;5016317;28;20445;-76
2022/03/04 03:15:51;;;;;;;9.10;3.72;;;-0.10;99.90;;;;;;4999382;28;20036;-76
2022/03/04 03:18:17;;;;;;;8.35;3.92;;;-0.20;99.90;;;;;;5017316;28;20547;-76
2022/03/04 03:20:44;;;;;;;8.93;4.22;;;-0.30;99.90;;;;;;5011958;28;20563;-76
2022/03/04 03:23:10;;;;;;;9.43;3.90;;;-0.40;99.90;;;;;;5023693;28;20907;-75
2022/03/04 03:25:36;;;;;;;9.23;3.53;;;-0.40;99.90;;;;;;5000546;28;20087;-76
2022/03/04 03:28:02;;;;;;;10.35;4.65;;;-0.50;99.90;;;;;;5019556;28;20482;-76
2022/03/04 03:30:28;;;;;;;9.40;4.38;;;-0.80;99.90;;;;;;5033317;28;20033;-77
2022/03/04 03:32:54;;;;;;;11.18;4.72;;;-0.90;99.90;;;;;;5016997;28;20064;-76
2022/03/04 03:35:19;;;;;;;8.90;3.40;;;-1.00;99.90;;;;;;5024718;28;20442;-76
2022/03/04 03:37:45;;;;;;;9.65;4.05;;;-0.90;99.90;;;;;;5024434;28;20018;-76
2022/03/04 03:40:12;;;;;;;8.82;3.78;;;-0.90;99.90;;;;;;5017328;28;20033;-76
2022/03/04 03:42:39;;;;;;;6.95;3.30;;;-0.90;99.90;;;;;;5017391;28;20112;-77
2022/03/04 03:45:06;;;;;;;7.22;3.15;;;-0.90;99.90;;;;;;5018842;28;20041;-76
2022/03/04 03:47:33;;;;;;;8.05;3.28;;;-1.00;99.90;;;;;;5015945;28;20056;-76
2022/03/04 03:49:59;;;;;;;8.85;3.80;;;-1.20;99.90;;;;;;5018759;28;20038;-76
2022/03/04 03:52:25;;;;;;;9.43;3.95;;;-1.30;99.90;;;;;;5018252;28;20420;-76
2022/03/04 03:54:51;;;;;;;6.88;2.88;;;-1.40;99.90;;;;;;5036464;28;20022;-76
2022/03/04 03:57:16;;;;;;;9.30;3.85;;;-1.20;99.90;;;;;;5003333;28;20465;-75
2022/03/04 03:59:42;;;;;;;8.73;3.53;;;-1.30;99.90;;;;;;5028545;28;20061;-76
2022/03/04 04:02:08;;;;;;;9.68;4.03;;;-1.40;99.90;;;;;;5020977;28;20045;-76
2022/03/04 04:04:36;;;;;;;9.63;4.07;;;-1.50;99.90;;;;;;5019807;28;20022;-75
2022/03/04 04:07:12;;;;;;;9.85;3.75;;;-1.60;99.90;;;;;;5020446;28;20502;-76
2022/03/04 04:09:37;;;;;;;8.38;3.72;;;-1.50;99.90;;;;;;5020402;28;20033;-76
2022/03/04 04:12:03;;;;;;;8.48;3.55;;;-1.60;99.90;;;;;;5027387;28;20079;-76
2022/03/04 04:14:30;;;;;;;7.55;2.90;;;-1.50;99.90;;;;;;5019307;28;20029;-76
2022/03/04 04:16:56;;;;;;;9.07;3.05;;;-1.50;99.90;;;;;;5019661;28;20041;-76
2022/03/04 04:19:23;;;;;;;8.80;3.08;;;-1.60;99.90;;;;;;5021075;28;20038;-76
2022/03/04 04:21:50;;;;;;;8.30;3.25;;;-1.60;99.90;;;;;;5036961;28;20057;-76
2022/03/04 04:24:16;;;;;;;6.10;2.38;;;-1.60;99.90;;;;;;5018818;28;20073;-76
2022/03/04 04:26:42;;;;;;;6.28;2.17;;;-1.70;99.90;;;;;;5037399;28;20517;-76
2022/03/04 04:29:08;;;;;;;5.65;2.08;;;-1.70;99.90;;;;;;5034359;28;20037;-76
2022/03/04 04:31:34;;;;;;;5.57;1.98;;;-1.50;99.90;;;;;;5021185;28;20043;-76
2022/03/04 04:34:01;;;;;;;5.53;2.33;;;-1.50;99.90;;;;;;5001445;28;20401;-76
2022/03/04 04:36:26;;;;;;;5.47;1.77;;;-1.60;99.90;;;;;;5035842;28;20079;-76
2022/03/04 04:38:52;;;;;;;6.78;2.22;;;-1.50;99.90;;;;;;5036219;28;20478;-76
2022/03/04 04:41:18;;;;;;;6.82;2.63;;;-1.40;99.90;;;;;;5003998;28;21159;-76
2022/03/04 04:43:44;;;;;;;8.15;2.55;;;-1.40;99.90;;;;;;5021662;28;20045;-76
2022/03/04 04:46:10;;;;;;;8.27;2.05;;;-1.40;99.90;;;;;;5017677;28;20033;-75
2022/03/04 04:48:36;;;;;;;5.35;1.90;;;-1.40;99.90;;;;;;5013943;28;20520;-75
2022/03/04 04:51:03;;;;;;;5.95;1.92;;;-1.40;99.90;;;;;;5026490;28;20021;-76
2022/03/04 04:53:29;;;;;;;5.82;1.75;;;-1.40;99.90;;;;;;5035515;28;20473;-76
2022/03/04 04:55:55;;;;;;;6.07;2.15;;;-1.40;99.90;;;;;;5002504;28;20033;-76
2022/03/04 04:58:21;;;;;;;5.57;1.80;;;-1.40;99.90;;;;;;5019693;28;20044;-76
2022/03/04 05:00:53;;;;;;;5.53;2.17;;;-1.50;99.90;;;;;;5000483;28;20090;-76
2022/03/04 05:03:25;;;;;;;6.03;1.90;;;-1.50;99.90;;;;;;5035194;28;20075;-76
2022/03/04 05:05:55;;;;;;;6.05;1.67;;;-1.60;99.90;;;;;;5019699;28;20037;-76
2022/03/04 05:08:21;;;;;;;6.70;2.28;;;-1.50;99.90;;;;;;5019028;28;20037;-76
2022/03/04 05:10:47;;;;;;;6.35;2.05;;;-1.50;99.90;;;;;;5035150;28;20048;-76
2022/03/04 05:13:14;;;;;;;5.63;1.65;;;-1.40;99.90;;;;;;5035334;28;20029;-76
2022/03/04 05:15:41;;;;;;;5.45;2.25;;;-1.40;99.90;;;;;;5019566;28;20029;-77
2022/03/04 05:18:08;;;;;;;6.25;2.38;;;-1.40;99.90;;;;;;5009693;28;20034;-76
2022/03/04 05:20:34;;;;;;;6.28;1.83;;;-1.40;99.90;;;;;;5020349;28;20628;-76
2022/03/04 05:23:00;;;;;;;6.97;2.65;;;-1.30;99.90;;;;;;5013072;28;20501;-75
2022/03/04 05:25:25;;;;;;;5.85;1.75;;;-1.30;99.90;;;;;;5026556;28;20117;-76
2022/03/04 05:27:51;;;;;;;5.50;1.88;;;-1.30;99.90;;;;;;5021019;28;20025;-76
2022/03/04 05:30:16;;;;;;;6.30;1.70;;;-1.30;99.90;;;;;;5025509;28;20080;-76
2022/03/04 05:32:42;;;;;;;8.13;2.53;;;-1.30;99.90;;;;;;5020787;28;20022;-76
2022/03/04 05:35:08;;;;;;;4.95;1.83;;;-1.30;99.90;;;;;;5019398;28;20389;-76
2022/03/04 05:37:34;;;;;;;5.15;2.05;;;-1.40;99.90;;;;;;5017818;28;20044;-76
2022/03/04 05:39:59;;;;;;;6.80;2.35;;;-1.30;99.90;;;;;;5016748;28;20037;-77
2022/03/04 05:42:26;;;;;;;7.85;2.65;;;-1.30;99.90;;;;;;5016144;28;20061;-76
2022/03/04 05:44:51;;;;;;;5.00;1.77;;;-1.30;99.90;;;;;;4995968;28;20029;-75
2022/03/04 05:47:17;;;;;;;6.88;2.47;;;-1.40;99.90;;;;;;5018883;28;20497;-76
2022/03/04 05:49:43;;;;;;;4.63;1.58;;;-1.50;99.90;;;;;;5035499;28;20048;-76
2022/03/04 05:52:09;;;;;;;5.63;2.28;;;-1.60;99.90;;;;;;5018739;28;20417;-76
2022/03/04 05:54:35;;;;;;;6.70;2.60;;;-1.50;99.90;;;;;;5019078;28;20469;-76
2022/03/04 05:57:01;;;;;;;6.38;2.80;;;-1.70;99.90;;;;;;5019708;28;20048;-76
2022/03/04 05:59:27;;;;;;;5.65;2.03;;;-1.60;99.90;;;;;;5018816;28;20033;-76
2022/03/04 06:01:52;;;;;;;6.85;2.28;;;-1.60;99.90;;;;;;5019815;28;20029;-76
2022/03/04 06:04:18;;;;;;;5.85;1.70;;;-1.60;99.90;;;;;;5019390;28;20481;-75
2022/03/04 06:06:44;;;;;;;5.68;2.20;;;-1.70;99.90;;;;;;5024742;28;20021;-76
2022/03/04 06:09:10;;;;;;;5.18;2.35;;;-1.60;99.90;;;;;;5024562;28;20033;-77
2022/03/04 06:11:36;;;;;;;6.03;1.90;;;-1.50;99.90;;;;;;5018148;28;20032;-76
2022/03/04 06:14:02;;;;;;;7.15;2.30;;;-1.50;99.90;;;;;;5018323;28;20029;-76
2022/03/04 06:16:28;;;;;;;5.45;1.73;;;-1.60;99.90;;;;;;4999021;28;20029;-74
2022/03/04 06:18:54;;;;;;;7.95;1.77;;;-1.60;99.90;;;;;;5011577;28;20491;-76
2022/03/04 06:21:19;;;;;;;7.68;2.38;;;-1.50;99.90;;;;;;4999768;28;20036;-75
2022/03/04 06:23:45;;;;;;;5.90;1.95;;;-1.60;99.90;;;;;;4994703;28;20494;-76
2022/03/04 06:26:11;;;;;;;5.85;1.90;;;-1.50;99.90;;;;;;5016566;28;20462;-75
2022/03/04 06:28:37;;;;;;;7.47;2.38;;;-1.60;99.90;;;;;;5034177;28;20033;-76
2022/03/04 06:31:03;;;;;;;6.22;1.92;;;-1.60;99.90;;;;;;5019107;28;20388;-75
2022/03/04 06:33:32;;;;;;;5.72;1.63;;;-1.50;99.90;;;;;;5016346;28;20260;-76
2022/03/04 06:36:07;;;;;;;7.68;2.72;;;-1.50;99.90;;;;;;5017107;28;20037;-75
2022/03/04 06:38:34;;;;;;;5.70;2.20;;;-1.40;99.90;;;;;;5033861;28;20036;-75
2022/03/04 06:41:00;;;;;;;8.48;2.80;;;-1.40;99.90;;;;;;5033413;28;20650;-76
2022/03/04 06:43:26;;;;;;;7.63;3.15;;;-1.40;99.90;;;;;;5033425;28;20045;-77
2022/03/04 06:45:51;;;;;;;5.53;1.80;;;-1.30;99.90;;;;;;5016681;28;20436;-75
2022/03/04 06:48:18;;;;;;;7.53;3.05;;;-1.30;99.90;;;;;;5033366;28;20060;-76
2022/03/04 06:50:46;;;;;;;6.65;2.30;;;-1.20;99.90;;;;;;5015016;28;20036;-75
2022/03/04 06:53:12;;;;;;;6.97;3.03;;;-1.20;99.90;;;;;;5013952;28;20025;-75
2022/03/04 06:55:37;;;;;;;6.75;2.67;;;-1.30;99.90;;;;;;5016735;28;20053;-76
2022/03/04 06:58:04;;;;;;;8.55;2.47;;;-1.20;99.90;;;;;;5016747;28;20035;-76
2022/03/04 07:00:29;;;;;;;8.65;3.80;;;-1.10;99.90;;;;;;5000587;28;20115;-76
2022/03/04 07:02:55;;;;;;;9.90;4.10;;;-1.10;99.90;;;;;;5022217;28;20445;-75
2022/03/04 07:05:22;;;;;;;9.60;4.00;;;-1.00;99.90;;;;;;4993134;28;20040;-75
2022/03/04 07:07:52;;;;;;;10.07;4.45;;;-1.00;99.90;;;;;;5016362;28;21956;-76
2022/03/04 07:10:18;;;;;;;;;;;-1.00;99.90;;;;;;5017377;28;20037;-75
2022/03/04 07:12:44;;;;;;;11.43;5.15;;;-0.90;99.90;;;;;;5015280;28;19996;-76
2022/03/04 07:15:10;;;;;;;13.02;4.68;;;-0.80;99.90;;;;;;5010119;28;20044;-75
2022/03/04 07:17:35;;;;;;;12.10;5.28;;;-0.80;99.90;;;;;;5022489;28;20026;-76
2022/03/04 07:20:02;;;;;;;11.80;4.95;;;-0.70;99.90;;;;;;5000471;28;20318;-75
2022/03/04 07:22:28;;;;;;;15.55;5.82;;;-0.60;99.90;;;;;;4997481;28;20021;-76
2022/03/04 07:24:54;;;;;;;13.23;6.53;;;-0.50;99.90;;;;;;5012126;28;20052;-75
2022/03/04 07:27:19;;;;;;;13.30;5.63;;;-0.50;99.90;;;;;;5021987;28;20072;-76
2022/03/04 07:29:45;;;;;;;13.60;5.82;;;-0.50;99.90;;;;;;5018445;28;20033;-76
2022/03/04 07:32:12;;;;;;;14.45;5.80;;;-0.50;99.90;;;;;;5019076;28;20025;-75
2022/03/04 07:34:37;;;;;;;13.32;5.60;;;-0.40;99.90;;;;;;5026848;28;20041;-75
2022/03/04 07:37:04;;;;;;;13.93;6.05;;;-0.40;99.90;;;;;;5027030;28;20033;-76
2022/03/04 07:39:29;;;;;;;12.60;6.30;;;-0.40;99.90;;;;;;4996507;28;20087;-76
2022/03/04 07:41:55;;;;;;;13.80;6.05;;;-0.30;99.90;;;;;;5021780;28;20683;-75
2022/03/04 07:44:26;;;;;;;12.98;6.05;;;-0.30;99.90;;;;;;5014742;28;20168;-75
2022/03/04 07:46:52;;;;;;;13.60;6.05;;;-0.30;99.90;;;;;;5025532;28;21902;-75
2022/03/04 07:49:18;;;;;;;18.30;8.23;;;-0.20;99.90;;;;;;5019899;28;20061;-75
2022/03/04 07:51:43;;;;;;;17.02;7.40;;;-0.10;99.90;;;;;;5019920;28;20029;-75
2022/03/04 07:54:10;;;;;;;15.27;5.90;;;0.00;99.90;;;;;;5021513;28;20444;-75
2022/03/04 07:56:35;;;;;;;16.13;7.80;;;-0.10;99.90;;;;;;5021176;28;20040;-76
2022/03/04 07:59:01;;;;;;;14.85;6.72;;;0.10;99.90;;;;;;5020304;28;20029;-76
2022/03/04 08:01:27;;;;;;;11.02;5.00;;;0.20;99.90;;;;;;5038778;28;20036;-75
2022/03/04 08:03:52;;;;;;;10.10;4.68;;;0.30;99.90;;;;;;5004588;28;20041;-76
2022/03/04 08:06:18;;;;;;;13.30;5.88;;;0.30;99.90;;;;;;5021668;28;20044;-76
2022/03/04 08:08:44;;;;;;;11.00;5.30;;;0.40;99.90;;;;;;5021245;28;20120;-75
2022/03/04 08:11:09;;;;;;;12.45;5.28;;;0.60;99.90;;;;;;5021904;28;20091;-75
2022/03/04 08:13:36;;;;;;;12.93;4.78;;;0.70;99.90;;;;;;5019629;28;20087;-76
2022/03/04 08:16:02;;;;;;;9.73;4.78;;;0.80;99.90;;;;;;5019003;28;21077;-76
2022/03/04 08:18:28;;;;;;;10.48;4.70;;;0.80;99.90;;;;;;5019749;28;20052;-75
2022/03/04 08:20:54;;;;;;;12.73;5.57;;;1.00;99.90;;;;;;5019924;28;20037;-77
2022/03/04 08:23:19;;;;;;;15.15;6.65;;;1.10;99.90;;;;;;4970497;28;20688;-75
2022/03/04 08:25:45;;;;;;;11.98;5.55;;;1.20;99.90;;;;;;5016202;28;20406;-75
2022/03/04 08:28:11;;;;;;;11.63;5.35;;;1.30;99.90;;;;;;5019319;28;20104;-75
2022/03/04 08:30:37;;;;;;;13.63;5.63;;;1.50;99.90;;;;;;5033892;28;20047;-75
2022/03/04 08:33:02;;;;;;;14.07;6.47;;;1.70;99.90;;;;;;5036850;28;20029;-75
2022/03/04 08:35:28;;;;;;;12.45;6.03;;;1.80;99.90;;;;;;5019240;28;20040;-76
2022/03/04 08:37:54;;;;;;;9.43;4.18;;;1.90;99.90;;;;;;5025077;28;20053;-75
2022/03/04 08:40:20;;;;;;;10.50;4.47;;;2.00;99.90;;;;;;5017676;28;20033;-76
2022/03/04 08:42:46;;;;;;;13.45;5.22;;;2.10;99.90;;;;;;5019327;28;20064;-76
2022/03/04 08:45:13;;;;;;;11.35;5.03;;;2.10;99.90;;;;;;5006160;28;20025;-75
2022/03/04 08:47:39;;;;;;;11.20;4.90;;;2.30;99.90;;;;;;5034219;28;20049;-77
2022/03/04 08:50:06;;;;;;;9.88;4.88;;;2.50;99.90;;;;;;5026089;28;20029;-75
2022/03/04 08:52:32;;;;;;;10.82;5.68;;;2.50;99.90;;;;;;5001838;28;20127;-76
2022/03/04 08:54:57;;;;;;;12.48;5.20;;;2.60;99.90;;;;;;5018486;28;20057;-76
2022/03/04 08:57:23;;;;;;;10.95;5.00;;;2.80;99.90;;;;;;5017873;28;20648;-76
2022/03/04 08:59:49;;;;;;;16.77;7.25;;;2.90;99.90;;;;;;5017566;28;20044;-76
2022/03/04 09:02:14;;;;;;;11.43;5.65;;;2.90;99.90;;;;;;5019105;28;20036;-76
2022/03/04 09:04:42;;;;;;;12.38;6.18;;;3.10;99.90;;;;;;5020350;28;20095;-76
2022/03/04 09:07:08;;;;;;;13.98;7.15;;;3.20;99.90;;;;;;5018895;28;20491;-76
2022/03/04 09:09:34;;;;;;;17.70;7.70;;;3.10;99.90;;;;;;4996463;28;20037;-77
2022/03/04 09:12:00;;;;;;;16.50;7.85;;;3.10;99.90;;;;;;5019327;28;20033;-76
2022/03/04 09:14:25;;;;;;;15.90;7.82;;;3.20;99.90;;;;;;5016632;28;20044;-76
2022/03/04 09:16:52;;;;;;;14.45;6.85;;;3.40;99.90;;;;;;5019078;28;20115;-76
2022/03/04 09:19:17;;;;;;;14.73;7.97;;;3.50;99.90;;;;;;5018191;28;20025;-76
2022/03/04 09:21:43;;;;;;;14.50;7.80;;;3.50;99.90;;;;;;4985282;28;20056;-77
2022/03/04 09:24:09;;;;;;;14.07;7.75;;;3.60;99.90;;;;;;4998173;28;20498;-76
2022/03/04 09:26:34;;;;;;;15.20;8.10;;;3.80;99.90;;;;;;5017649;28;20033;-76
2022/03/04 09:29:00;;;;;;;16.23;8.27;;;3.90;99.90;;;;;;5001870;28;20045;-76
2022/03/04 09:31:26;;;;;;;14.55;7.45;;;4.10;99.90;;;;;;4998759;28;20036;-76
2022/03/04 09:33:53;;;;;;;12.27;6.75;;;4.20;99.90;;;;;;4985446;28;20037;-76
2022/03/04 09:36:18;;;;;;;12.32;6.68;;;4.40;99.90;;;;;;5020183;28;20091;-76
2022/03/04 09:38:44;;;;;;;12.40;6.35;;;4.60;99.90;;;;;;5017889;28;20037;-76
2022/03/04 09:41:10;;;;;;;12.93;6.90;;;4.50;99.90;;;;;;5014858;28;20029;-76
2022/03/04 09:43:38;;;;;;;14.02;7.70;;;4.60;99.90;;;;;;5017207;28;20048;-77
2022/03/04 09:46:03;;;;;;;12.00;5.90;;;4.70;99.90;;;;;;5015485;28;20448;-76
2022/03/04 09:48:30;;;;;;;14.15;6.55;;;4.80;99.90;;;;;;5021730;28;20049;-76
2022/03/04 09:50:55;;;;;;;13.80;6.80;;;4.80;99.90;;;;;;5025037;28;20033;-76
2022/03/04 09:53:21;;;;;;;12.85;6.35;;;4.90;99.90;;;;;;5031986;28;20044;-76
2022/03/04 09:55:47;;;;;;;11.50;5.88;;;5.00;99.90;;;;;;4999781;28;20116;-76
2022/03/04 09:58:18;;;;;;;10.77;5.70;;;5.10;99.90;;;;;;5015634;28;20646;-76
2022/03/04 10:00:45;;;;;;;11.20;5.85;;;5.20;99.90;;;;;;5032248;28;20030;-76
2022/03/04 10:03:30;;;;;;;11.20;6.25;;;5.40;99.90;;;;;;5017885;28;20041;-76
2022/03/04 10:06:04;;;;;;;12.00;6.22;;;5.40;99.90;;;;;;5016677;28;20124;-75
2022/03/04 10:08:37;;;;;;;12.88;6.07;;;5.60;99.90;;;;;;5031653;28;20558;-76
2022/03/04 10:11:03;;;;;;;12.15;6.38;;;5.70;99.90;;;;;;5000592;28;20053;-76
2022/03/04 10:13:47;;;;;;;11.57;5.97;;;5.90;99.90;;;;;;5016364;28;20447;-75
2022/03/04 10:16:22;;;;;;;12.23;6.20;;;6.10;99.90;;;;;;5004919;28;20033;-76
2022/03/04 10:19:03;;;;;;;12.90;7.05;;;6.10;99.90;;;;;;5011843;28;20488;-75
2022/03/04 10:21:49;;;;;;;10.88;5.82;;;6.00;99.90;;;;;;4986896;28;20042;-75
2022/03/04 10:24:17;;;;;;;10.43;6.28;;;6.00;99.90;;;;;;4994568;28;20045;-75
2022/03/04 10:26:43;;;;;;;14.43;7.63;;;6.30;99.90;;;;;;5032954;28;20116;-76
2022/03/04 10:29:20;;;;;;;13.07;7.05;;;6.50;99.90;;;;;;5000309;28;20055;-76
2022/03/04 10:32:05;;;;;;;15.45;7.72;;;6.50;99.90;;;;;;5017725;28;20076;-75
2022/03/04 10:34:43;;;;;;;14.27;8.05;;;6.60;99.90;;;;;;5016461;28;20030;-75
2022/03/04 10:37:09;;;;;;;13.65;8.25;;;6.80;99.90;;;;;;5023433;28;20018;-76
2022/03/04 10:39:35;;;;;;;13.57;7.68;;;6.80;99.90;;;;;;4999123;28;20034;-76
2022/03/04 10:42:01;;;;;;;14.63;8.75;;;6.80;99.90;;;;;;5016811;28;20029;-75
2022/03/04 10:44:27;;;;;;;13.38;7.50;;;7.10;99.90;;;;;;5000750;28;20393;-76
2022/03/04 10:46:57;;;;;;;14.18;8.38;;;7.10;99.90;;;;;;5031009;28;20517;-75
2022/03/04 10:49:27;;;;;;;13.93;8.70;;;7.00;99.90;;;;;;4999097;28;20541;-75
2022/03/04 10:52:09;;;;;;;15.00;8.93;;;7.10;99.90;;;;;;5011197;28;20081;-75
2022/03/04 10:54:34;;;;;;;15.70;8.45;;;7.20;99.90;;;;;;5017727;28;20037;-75
2022/03/04 10:57:03;;;;;;;14.18;8.38;;;7.50;99.90;;;;;;5025346;28;20060;-76
2022/03/04 10:59:29;;;;;;;14.98;8.65;;;7.70;99.90;;;;;;5001588;28;20556;-76
2022/03/04 11:01:55;;;;;;;13.32;7.53;;;7.90;99.90;;;;;;5004648;28;20398;-75
2022/03/04 11:04:22;;;;;;;14.30;7.65;;;8.00;99.90;;;;;;5018576;28;20389;-75
2022/03/04 11:06:49;;;;;;;13.40;7.90;;;8.10;99.90;;;;;;5020887;28;20527;-76
2022/03/04 11:09:17;;;;;;;12.85;7.55;;;8.00;99.90;;;;;;5003310;28;20179;-76
2022/03/04 11:11:44;;;;;;;12.63;6.95;;;8.30;99.90;;;;;;4998707;28;20552;-75
2022/03/04 11:14:13;;;;;;;10.82;7.05;;;8.50;99.90;;;;;;5016960;28;20041;-76
2022/03/04 11:16:40;;;;;;;12.20;7.67;;;8.30;99.90;;;;;;5020203;28;20053;-76
2022/03/04 11:19:06;;;;;;;12.95;7.55;;;8.30;99.90;;;;;;5036594;28;20459;-75
2022/03/04 11:21:32;;;;;;;12.68;8.65;;;8.40;99.90;;;;;;5021678;28;20030;-76
2022/03/04 11:23:59;;;;;;;12.68;7.68;;;8.30;99.90;;;;;;5019034;28;20068;-76
2022/03/04 11:26:29;;;;;;;12.00;8.10;;;8.50;99.90;;;;;;5017025;28;20373;-75
2022/03/04 11:28:56;;;;;;;12.63;8.07;;;8.40;99.90;;;;;;5021042;28;20412;-76
2022/03/04 11:31:26;;;;;;;13.88;8.00;;;8.50;99.90;;;;;;5021911;28;20135;-76
2022/03/04 11:34:00;;;;;;;13.00;8.25;;;8.70;99.90;;;;;;5020480;28;20095;-75
2022/03/04 11:36:32;;;;;;;13.88;8.30;;;8.60;99.90;;;;;;5003592;28;21712;-75
2022/03/04 11:39:10;;;;;;;12.30;7.68;;;8.80;99.90;;;;;;5018226;28;20106;-75
2022/03/04 11:41:38;;;;;;;13.52;8.20;;;8.70;99.90;;;;;;5028033;28;20049;-76
2022/03/04 11:44:18;;;;;;;10.07;6.53;;;8.90;99.90;;;;;;5002233;28;20425;-75
2022/03/04 11:46:58;;;;;;;15.77;8.52;;;9.10;99.90;;;;;;5020598;28;20053;-75
2022/03/04 11:49:26;;;;;;;11.75;7.22;;;9.00;99.90;;;;;;5021002;28;20460;-76
2022/03/04 11:52:10;;;;;;;12.80;7.78;;;8.90;99.90;;;;;;5019743;28;20108;-76
2022/03/04 11:54:38;;;;;;;14.00;9.35;;;9.00;99.90;;;;;;5013705;28;20207;-76
2022/03/04 11:57:18;;;;;;;15.57;9.68;;;9.00;99.90;;;;;;5020526;28;20065;-76
2022/03/04 12:00:12;;;;;;;15.02;9.05;;;9.20;99.90;;;;;;5019041;28;20021;-75
2022/03/04 12:02:48;;;;;;;14.98;10.35;;;9.30;99.90;;;;;;5016619;28;20102;-75
2022/03/04 12:05:22;;;;;;;16.15;9.02;;;9.30;99.90;;;;;;5015798;28;20132;-75
2022/03/04 12:07:55;;;;;;;11.70;7.88;;;9.30;99.90;;;;;;5017836;28;20026;-76
2022/03/04 12:10:35;;;;;;;13.45;8.25;;;9.20;99.90;;;;;;5017463;28;20060;-75
2022/03/04 12:13:23;;;;;;;14.27;7.88;;;9.30;99.90;;;;;;4996086;28;20539;-76
2022/03/04 12:15:59;;;;;;;12.70;7.68;;;9.60;99.90;;;;;;5013417;28;20512;-76
2022/03/04 12:18:35;;;;;;;13.18;7.97;;;9.50;99.90;;;;;;5020362;28;20553;-76
2022/03/04 12:21:13;;;;;;;10.95;6.65;;;9.60;99.90;;;;;;5000206;28;20412;-76
2022/03/04 12:23:42;;;;;;;11.30;7.05;;;9.70;99.90;;;;;;5034678;28;20476;-76
2022/03/04 12:26:25;;;;;;;9.50;6.18;;;9.80;99.90;;;;;;5017850;28;20033;-76
2022/03/04 12:29:01;;;;;;;10.57;6.53;;;9.80;99.90;;;;;;5020673;28;20033;-76
2022/03/04 12:31:30;;;;;;;10.55;6.82;;;9.50;99.90;;;;;;5034487;28;20037;-76
2022/03/04 12:33:57;;;;;;;11.80;7.78;;;9.60;99.90;;;;;;5018692;28;20446;-76
2022/03/04 12:36:26;;;;;;;16.00;9.73;;;9.90;99.90;;;;;;5012324;28;20029;-76
2022/03/04 12:38:58;;;;;;;13.25;8.25;;;9.60;99.90;;;;;;5019360;28;20087;-76
2022/03/04 12:41:32;;;;;;;12.95;8.63;;;9.60;99.90;;;;;;5018854;28;20025;-76
2022/03/04 12:44:03;;;;;;;12.10;7.75;;;9.70;99.90;;;;;;5020208;28;20080;-76
2022/03/04 12:46:31;;;;;;;13.48;8.55;;;9.60;99.90;;;;;;4983687;28;1044571;-75
2022/03/04 12:48:57;;;;;;;11.60;7.30;;;9.80;99.90;;;;;;5016210;28;20500;-76